sensor_id;sensor_type;location;lat;lon;timestamp;P1;durP1;ratioP1;P2;durP2;ratioP2
9186;SDS011;7273;48.902;9.410;2022-11-20T00:01:43;395.25;;;117.45;;
9186;SDS011;7273;48.902;9.410;2022-11-20T00:04:09;396.02;;;117.85;;
9186;SDS011;7273;48.902;9.410;2022-11-20T00:06:37;396.63;;;117.93;;
9186;SDS011;7273;48.902;9.410;2022-11-20T00:09:02;397.33;;;118.30;;
9186;SDS011;7273;48.902;9.410;2022-11-20T00:11:30;396.30;;;117.13;;
9186;SDS011;7273;48.902;9.410;2022-11-20T00:13:57;397.58;;;118.75;;
9186;SDS011;7273;48.902;9.410;2022-11-20T00:16:25;397.42;;;117.90;;
9186;SDS011;7273;48.902;9.410;2022-11-20T00:18:52;402.23;;;120.72;;
9186;SDS011;7273;48.902;9.410;2022-11-20T00:21:19;385.08;;;114.47;;
9186;SDS011;7273;48.902;9.410;2022-11-20T00:23:47;397.05;;;118.00;;
9186;SDS011;7273;48.902;9.410;2022-11-20T00:26:14;407.15;;;120.80;;
9186;SDS011;7273;48.902;9.410;2022-11-20T00:28:41;410.27;;;121.45;;
9186;SDS011;7273;48.902;9.410;2022-11-20T00:31:12;417.52;;;124.20;;
9186;SDS011;7273;48.902;9.410;2022-11-20T00:33:40;425.40;;;126.50;;
9186;SDS011;7273;48.902;9.410;2022-11-20T00:36:07;432.60;;;128.65;;
9186;SDS011;7273;48.902;9.410;2022-11-20T00:38:37;431.40;;;129.60;;
9186;SDS011;7273;48.902;9.410;2022-11-20T00:41:04;431.40;;;128.52;;
9186;SDS011;7273;48.902;9.410;2022-11-20T00:43:32;439.27;;;131.75;;
9186;SDS011;7273;48.902;9.410;2022-11-20T00:46:01;436.52;;;131.70;;
9186;SDS011;7273;48.902;9.410;2022-11-20T00:48:29;436.75;;;131.25;;
9186;SDS011;7273;48.902;9.410;2022-11-20T00:50:55;435.33;;;130.95;;
9186;SDS011;7273;48.902;9.410;2022-11-20T00:53:21;436.40;;;131.35;;
9186;SDS011;7273;48.902;9.410;2022-11-20T00:55:56;433.67;;;130.32;;
9186;SDS011;7273;48.902;9.410;2022-11-20T00:58:24;434.70;;;130.13;;
9186;SDS011;7273;48.902;9.410;2022-11-20T01:00:50;435.58;;;130.50;;
9186;SDS011;7273;48.902;9.410;2022-11-20T01:03:19;435.83;;;132.10;;
9186;SDS011;7273;48.902;9.410;2022-11-20T01:05:44;436.25;;;131.15;;
9186;SDS011;7273;48.902;9.410;2022-11-20T01:08:10;437.17;;;130.52;;
9186;SDS011;7273;48.902;9.410;2022-11-20T01:10:35;437.23;;;131.45;;
9186;SDS011;7273;48.902;9.410;2022-11-20T01:13:01;435.70;;;130.15;;
9186;SDS011;7273;48.902;9.410;2022-11-20T01:15:45;438.98;;;132.75;;
9186;SDS011;7273;48.902;9.410;2022-11-20T01:18:11;440.17;;;131.55;;
9186;SDS011;7273;48.902;9.410;2022-11-20T01:20:36;440.17;;;132.98;;
9186;SDS011;7273;48.902;9.410;2022-11-20T01:23:05;442.08;;;133.18;;
9186;SDS011;7273;48.902;9.410;2022-11-20T01:25:30;441.45;;;131.77;;
9186;SDS011;7273;48.902;9.410;2022-11-20T01:27:56;437.20;;;130.93;;
9186;SDS011;7273;48.902;9.410;2022-11-20T01:30:21;441.83;;;132.75;;
9186;SDS011;7273;48.902;9.410;2022-11-20T01:32:46;439.80;;;131.35;;
9186;SDS011;7273;48.902;9.410;2022-11-20T01:35:12;442.70;;;133.30;;
9186;SDS011;7273;48.902;9.410;2022-11-20T01:37:37;443.17;;;133.05;;
9186;SDS011;7273;48.902;9.410;2022-11-20T01:40:03;445.27;;;133.43;;
9186;SDS011;7273;48.902;9.410;2022-11-20T01:42:29;445.80;;;133.48;;
9186;SDS011;7273;48.902;9.410;2022-11-20T01:48:13;445.85;;;134.77;;
9186;SDS011;7273;48.902;9.410;2022-11-20T01:50:39;449.35;;;135.18;;
9186;SDS011;7273;48.902;9.410;2022-11-20T01:53:08;452.30;;;137.38;;
9186;SDS011;7273;48.902;9.410;2022-11-20T01:55:44;455.40;;;137.05;;
9186;SDS011;7273;48.902;9.410;2022-11-20T01:58:18;454.90;;;137.23;;
9186;SDS011;7273;48.902;9.410;2022-11-20T02:00:48;456.88;;;139.35;;
9186;SDS011;7273;48.902;9.410;2022-11-20T02:03:16;456.83;;;137.73;;
9186;SDS011;7273;48.902;9.410;2022-11-20T02:05:59;461.92;;;139.13;;
9186;SDS011;7273;48.902;9.410;2022-11-20T02:08:46;464.17;;;140.07;;
9186;SDS011;7273;48.902;9.410;2022-11-20T02:11:11;470.13;;;141.75;;
9186;SDS011;7273;48.902;9.410;2022-11-20T02:13:37;468.08;;;141.70;;
9186;SDS011;7273;48.902;9.410;2022-11-20T02:18:56;479.05;;;145.32;;
9186;SDS011;7273;48.902;9.410;2022-11-20T02:21:26;480.80;;;145.32;;
9186;SDS011;7273;48.902;9.410;2022-11-20T02:24:02;487.65;;;149.35;;
9186;SDS011;7273;48.902;9.410;2022-11-20T02:26:30;488.17;;;148.90;;
9186;SDS011;7273;48.902;9.410;2022-11-20T02:29:00;493.90;;;150.00;;
9186;SDS011;7273;48.902;9.410;2022-11-20T02:31:27;496.85;;;150.45;;
9186;SDS011;7273;48.902;9.410;2022-11-20T02:33:56;502.05;;;151.65;;
9186;SDS011;7273;48.902;9.410;2022-11-20T02:36:23;508.48;;;154.57;;
9186;SDS011;7273;48.902;9.410;2022-11-20T02:38:51;515.15;;;156.57;;
9186;SDS011;7273;48.902;9.410;2022-11-20T02:41:16;543.47;;;169.27;;
9186;SDS011;7273;48.902;9.410;2022-11-20T02:43:42;585.47;;;188.95;;
9186;SDS011;7273;48.902;9.410;2022-11-20T02:46:07;620.67;;;204.40;;
9186;SDS011;7273;48.902;9.410;2022-11-20T02:48:33;612.95;;;201.60;;
9186;SDS011;7273;48.902;9.410;2022-11-20T02:50:58;626.25;;;209.10;;
9186;SDS011;7273;48.902;9.410;2022-11-20T02:53:24;489.98;;;148.43;;
9186;SDS011;7273;48.902;9.410;2022-11-20T02:55:49;516.88;;;161.07;;
9186;SDS011;7273;48.902;9.410;2022-11-20T02:58:15;442.65;;;131.30;;
9186;SDS011;7273;48.902;9.410;2022-11-20T03:00:40;560.08;;;180.57;;
9186;SDS011;7273;48.902;9.410;2022-11-20T03:03:05;582.70;;;186.75;;
9186;SDS011;7273;48.902;9.410;2022-11-20T03:05:31;557.22;;;178.70;;
9186;SDS011;7273;48.902;9.410;2022-11-20T03:07:56;413.60;;;122.13;;
9186;SDS011;7273;48.902;9.410;2022-11-20T03:10:22;405.80;;;119.63;;
9186;SDS011;7273;48.902;9.410;2022-11-20T03:12:47;406.25;;;120.13;;
9186;SDS011;7273;48.902;9.410;2022-11-20T03:15:18;404.92;;;119.90;;
9186;SDS011;7273;48.902;9.410;2022-11-20T03:17:43;408.98;;;120.82;;
9186;SDS011;7273;48.902;9.410;2022-11-20T03:20:09;413.60;;;122.55;;
9186;SDS011;7273;48.902;9.410;2022-11-20T03:22:35;406.98;;;120.68;;
9186;SDS011;7273;48.902;9.410;2022-11-20T03:25:00;413.85;;;122.65;;
9186;SDS011;7273;48.902;9.410;2022-11-20T03:27:26;412.67;;;122.45;;
9186;SDS011;7273;48.902;9.410;2022-11-20T03:29:51;416.73;;;124.13;;
9186;SDS011;7273;48.902;9.410;2022-11-20T03:32:17;467.75;;;140.60;;
9186;SDS011;7273;48.902;9.410;2022-11-20T03:34:42;524.38;;;160.85;;
9186;SDS011;7273;48.902;9.410;2022-11-20T03:37:07;496.77;;;154.13;;
9186;SDS011;7273;48.902;9.410;2022-11-20T03:39:33;403.42;;;118.80;;
9186;SDS011;7273;48.902;9.410;2022-11-20T03:41:58;402.77;;;118.55;;
9186;SDS011;7273;48.902;9.410;2022-11-20T03:44:24;398.03;;;118.90;;
9186;SDS011;7273;48.902;9.410;2022-11-20T03:46:49;398.02;;;117.20;;
9186;SDS011;7273;48.902;9.410;2022-11-20T03:49:14;399.52;;;117.93;;
9186;SDS011;7273;48.902;9.410;2022-11-20T03:51:40;411.80;;;121.47;;
9186;SDS011;7273;48.902;9.410;2022-11-20T03:54:06;414.10;;;121.97;;
9186;SDS011;7273;48.902;9.410;2022-11-20T03:56:34;403.60;;;119.35;;
9186;SDS011;7273;48.902;9.410;2022-11-20T03:59:01;393.63;;;116.50;;
9186;SDS011;7273;48.902;9.410;2022-11-20T04:01:28;391.63;;;115.78;;
9186;SDS011;7273;48.902;9.410;2022-11-20T04:03:56;389.80;;;115.35;;
9186;SDS011;7273;48.902;9.410;2022-11-20T04:06:22;385.98;;;114.68;;
9186;SDS011;7273;48.902;9.410;2022-11-20T04:08:50;380.55;;;113.07;;
9186;SDS011;7273;48.902;9.410;2022-11-20T04:11:17;375.70;;;111.82;;
9186;SDS011;7273;48.902;9.410;2022-11-20T04:13:51;375.35;;;112.07;;
9186;SDS011;7273;48.902;9.410;2022-11-20T04:16:20;374.75;;;111.65;;
9186;SDS011;7273;48.902;9.410;2022-11-20T04:18:46;373.45;;;111.40;;
9186;SDS011;7273;48.902;9.410;2022-11-20T04:21:12;376.92;;;112.07;;
9186;SDS011;7273;48.902;9.410;2022-11-20T04:23:38;371.92;;;110.90;;
9186;SDS011;7273;48.902;9.410;2022-11-20T04:26:07;372.30;;;111.32;;
9186;SDS011;7273;48.902;9.410;2022-11-20T04:28:34;372.00;;;112.55;;
9186;SDS011;7273;48.902;9.410;2022-11-20T04:31:04;372.70;;;110.97;;
9186;SDS011;7273;48.902;9.410;2022-11-20T04:33:33;373.45;;;111.43;;
9186;SDS011;7273;48.902;9.410;2022-11-20T04:36:00;365.83;;;111.13;;
9186;SDS011;7273;48.902;9.410;2022-11-20T04:38:27;372.20;;;111.30;;
9186;SDS011;7273;48.902;9.410;2022-11-20T04:40:55;375.80;;;112.35;;
9186;SDS011;7273;48.902;9.410;2022-11-20T04:43:22;374.42;;;112.13;;
9186;SDS011;7273;48.902;9.410;2022-11-20T04:45:51;375.75;;;112.72;;
9186;SDS011;7273;48.902;9.410;2022-11-20T04:48:17;374.95;;;111.72;;
9186;SDS011;7273;48.902;9.410;2022-11-20T04:50:42;372.63;;;111.55;;
9186;SDS011;7273;48.902;9.410;2022-11-20T04:53:08;376.95;;;112.65;;
9186;SDS011;7273;48.902;9.410;2022-11-20T04:55:33;377.15;;;114.55;;
9186;SDS011;7273;48.902;9.410;2022-11-20T04:57:59;380.13;;;114.57;;
9186;SDS011;7273;48.902;9.410;2022-11-20T05:00:24;385.83;;;114.22;;
9186;SDS011;7273;48.902;9.410;2022-11-20T05:02:49;383.58;;;115.43;;
9186;SDS011;7273;48.902;9.410;2022-11-20T05:05:15;381.35;;;113.05;;
9186;SDS011;7273;48.902;9.410;2022-11-20T05:07:40;379.73;;;112.93;;
9186;SDS011;7273;48.902;9.410;2022-11-20T05:10:06;382.50;;;114.00;;
9186;SDS011;7273;48.902;9.410;2022-11-20T05:12:31;385.65;;;114.70;;
9186;SDS011;7273;48.902;9.410;2022-11-20T05:14:57;383.20;;;114.20;;
9186;SDS011;7273;48.902;9.410;2022-11-20T05:17:22;383.15;;;113.75;;
9186;SDS011;7273;48.902;9.410;2022-11-20T05:19:48;382.63;;;113.75;;
9186;SDS011;7273;48.902;9.410;2022-11-20T05:22:13;380.95;;;113.15;;
9186;SDS011;7273;48.902;9.410;2022-11-20T05:24:38;388.15;;;115.35;;
9186;SDS011;7273;48.902;9.410;2022-11-20T05:27:04;386.88;;;115.38;;
9186;SDS011;7273;48.902;9.410;2022-11-20T05:29:29;392.08;;;117.32;;
9186;SDS011;7273;48.902;9.410;2022-11-20T05:31:55;392.42;;;116.65;;
9186;SDS011;7273;48.902;9.410;2022-11-20T05:34:20;388.23;;;114.97;;
9186;SDS011;7273;48.902;9.410;2022-11-20T05:36:45;392.30;;;116.05;;
9186;SDS011;7273;48.902;9.410;2022-11-20T05:39:11;379.65;;;113.10;;
9186;SDS011;7273;48.902;9.410;2022-11-20T05:41:36;383.08;;;114.10;;
9186;SDS011;7273;48.902;9.410;2022-11-20T05:44:02;391.40;;;116.38;;
9186;SDS011;7273;48.902;9.410;2022-11-20T05:46:27;397.45;;;117.45;;
9186;SDS011;7273;48.902;9.410;2022-11-20T05:48:53;398.27;;;118.18;;
9186;SDS011;7273;48.902;9.410;2022-11-20T05:51:18;397.02;;;118.13;;
9186;SDS011;7273;48.902;9.410;2022-11-20T05:53:44;403.13;;;119.65;;
9186;SDS011;7273;48.902;9.410;2022-11-20T05:56:14;406.98;;;120.90;;
9186;SDS011;7273;48.902;9.410;2022-11-20T05:58:42;411.73;;;122.60;;
9186;SDS011;7273;48.902;9.410;2022-11-20T06:03:37;418.10;;;124.90;;
9186;SDS011;7273;48.902;9.410;2022-11-20T06:06:03;419.88;;;124.97;;
9186;SDS011;7273;48.902;9.410;2022-11-20T06:08:29;422.52;;;126.07;;
9186;SDS011;7273;48.902;9.410;2022-11-20T06:10:55;427.27;;;128.63;;
9186;SDS011;7273;48.902;9.410;2022-11-20T06:13:20;427.98;;;127.45;;
9186;SDS011;7273;48.902;9.410;2022-11-20T06:15:49;437.15;;;130.80;;
9186;SDS011;7273;48.902;9.410;2022-11-20T06:18:18;443.85;;;133.13;;
9186;SDS011;7273;48.902;9.410;2022-11-20T06:20:45;448.90;;;134.43;;
9186;SDS011;7273;48.902;9.410;2022-11-20T06:23:11;458.77;;;137.45;;
9186;SDS011;7273;48.902;9.410;2022-11-20T06:25:37;466.65;;;140.15;;
9186;SDS011;7273;48.902;9.410;2022-11-20T06:28:06;484.17;;;146.20;;
9186;SDS011;7273;48.902;9.410;2022-11-20T06:30:32;490.63;;;147.63;;
9186;SDS011;7273;48.902;9.410;2022-11-20T06:32:58;499.80;;;151.30;;
9186;SDS011;7273;48.902;9.410;2022-11-20T06:35:23;536.38;;;166.70;;
9186;SDS011;7273;48.902;9.410;2022-11-20T06:37:49;419.23;;;124.20;;
9186;SDS011;7273;48.902;9.410;2022-11-20T06:40:14;481.40;;;146.45;;
9186;SDS011;7273;48.902;9.410;2022-11-20T06:42:40;543.97;;;173.77;;
9186;SDS011;7273;48.902;9.410;2022-11-20T06:45:05;378.33;;;112.60;;
9186;SDS011;7273;48.902;9.410;2022-11-20T06:47:31;375.35;;;112.28;;
9186;SDS011;7273;48.902;9.410;2022-11-20T06:49:57;370.05;;;111.00;;
9186;SDS011;7273;48.902;9.410;2022-11-20T06:52:22;358.58;;;108.57;;
9186;SDS011;7273;48.902;9.410;2022-11-20T06:54:48;353.00;;;107.00;;
9186;SDS011;7273;48.902;9.410;2022-11-20T06:57:13;348.83;;;106.15;;
9186;SDS011;7273;48.902;9.410;2022-11-20T06:59:39;347.23;;;106.38;;
9186;SDS011;7273;48.902;9.410;2022-11-20T07:02:04;341.13;;;104.45;;
9186;SDS011;7273;48.902;9.410;2022-11-20T07:04:29;339.33;;;104.05;;
9186;SDS011;7273;48.902;9.410;2022-11-20T07:06:55;341.17;;;104.80;;
9186;SDS011;7273;48.902;9.410;2022-11-20T07:09:20;337.75;;;104.03;;
9186;SDS011;7273;48.902;9.410;2022-11-20T07:11:46;336.58;;;103.55;;
9186;SDS011;7273;48.902;9.410;2022-11-20T07:14:11;334.50;;;102.85;;
9186;SDS011;7273;48.902;9.410;2022-11-20T07:16:36;335.80;;;104.78;;
9186;SDS011;7273;48.902;9.410;2022-11-20T07:19:02;333.90;;;103.97;;
9186;SDS011;7273;48.902;9.410;2022-11-20T07:21:27;335.77;;;104.80;;
9186;SDS011;7273;48.902;9.410;2022-11-20T07:23:53;333.40;;;102.75;;
9186;SDS011;7273;48.902;9.410;2022-11-20T07:26:18;335.95;;;103.72;;
9186;SDS011;7273;48.902;9.410;2022-11-20T07:28:44;336.67;;;103.38;;
9186;SDS011;7273;48.902;9.410;2022-11-20T07:31:10;335.92;;;104.72;;
9186;SDS011;7273;48.902;9.410;2022-11-20T07:33:36;334.25;;;103.53;;
9186;SDS011;7273;48.902;9.410;2022-11-20T07:36:02;333.02;;;102.57;;
9186;SDS011;7273;48.902;9.410;2022-11-20T07:38:28;334.98;;;103.40;;
9186;SDS011;7273;48.902;9.410;2022-11-20T07:40:56;335.02;;;103.22;;
9186;SDS011;7273;48.902;9.410;2022-11-20T07:43:26;336.73;;;103.72;;
9186;SDS011;7273;48.902;9.410;2022-11-20T07:45:55;336.35;;;103.50;;
9186;SDS011;7273;48.902;9.410;2022-11-20T07:50:46;347.70;;;106.20;;
9186;SDS011;7273;48.902;9.410;2022-11-20T07:53:12;340.70;;;104.50;;
9186;SDS011;7273;48.902;9.410;2022-11-20T07:55:38;341.17;;;104.35;;
9186;SDS011;7273;48.902;9.410;2022-11-20T07:58:04;340.80;;;104.18;;
9186;SDS011;7273;48.902;9.410;2022-11-20T08:00:29;343.50;;;105.35;;
9186;SDS011;7273;48.902;9.410;2022-11-20T08:02:55;340.83;;;104.15;;
9186;SDS011;7273;48.902;9.410;2022-11-20T08:05:21;342.38;;;104.43;;
9186;SDS011;7273;48.902;9.410;2022-11-20T08:07:46;348.33;;;106.45;;
9186;SDS011;7273;48.902;9.410;2022-11-20T08:10:13;344.33;;;104.57;;
9186;SDS011;7273;48.902;9.410;2022-11-20T08:12:44;354.45;;;108.10;;
9186;SDS011;7273;48.902;9.410;2022-11-20T08:15:32;354.77;;;107.80;;
9186;SDS011;7273;48.902;9.410;2022-11-20T08:18:04;349.50;;;107.50;;
9186;SDS011;7273;48.902;9.410;2022-11-20T08:20:32;357.77;;;108.45;;
9186;SDS011;7273;48.902;9.410;2022-11-20T08:23:01;357.35;;;108.70;;
9186;SDS011;7273;48.902;9.410;2022-11-20T08:25:28;366.05;;;109.97;;
9186;SDS011;7273;48.902;9.410;2022-11-20T08:27:56;369.73;;;112.30;;
9186;SDS011;7273;48.902;9.410;2022-11-20T08:30:23;370.90;;;111.50;;
9186;SDS011;7273;48.902;9.410;2022-11-20T08:32:48;366.10;;;110.32;;
9186;SDS011;7273;48.902;9.410;2022-11-20T08:35:13;361.17;;;109.15;;
9186;SDS011;7273;48.902;9.410;2022-11-20T08:37:39;360.98;;;109.28;;
9186;SDS011;7273;48.902;9.410;2022-11-20T08:40:08;364.35;;;110.15;;
9186;SDS011;7273;48.902;9.410;2022-11-20T08:42:35;365.77;;;110.60;;
9186;SDS011;7273;48.902;9.410;2022-11-20T08:45:00;366.98;;;111.10;;
9186;SDS011;7273;48.902;9.410;2022-11-20T08:47:26;366.10;;;110.72;;
9186;SDS011;7273;48.902;9.410;2022-11-20T08:49:51;363.17;;;110.05;;
9186;SDS011;7273;48.902;9.410;2022-11-20T08:52:17;369.35;;;112.07;;
9186;SDS011;7273;48.902;9.410;2022-11-20T08:54:42;372.17;;;112.53;;
9186;SDS011;7273;48.902;9.410;2022-11-20T08:57:07;370.63;;;111.60;;
9186;SDS011;7273;48.902;9.410;2022-11-20T08:59:33;374.45;;;112.25;;
9186;SDS011;7273;48.902;9.410;2022-11-20T09:01:58;375.40;;;113.07;;
9186;SDS011;7273;48.902;9.410;2022-11-20T09:04:24;368.65;;;111.00;;
9186;SDS011;7273;48.902;9.410;2022-11-20T09:06:49;377.25;;;114.50;;
9186;SDS011;7273;48.902;9.410;2022-11-20T09:09:16;382.08;;;115.28;;
9186;SDS011;7273;48.902;9.410;2022-11-20T09:11:43;382.52;;;114.43;;
9186;SDS011;7273;48.902;9.410;2022-11-20T09:14:08;380.88;;;113.88;;
9186;SDS011;7273;48.902;9.410;2022-11-20T09:16:33;379.58;;;113.93;;
9186;SDS011;7273;48.902;9.410;2022-11-20T09:18:59;383.77;;;115.50;;
9186;SDS011;7273;48.902;9.410;2022-11-20T09:21:24;383.13;;;115.28;;
9186;SDS011;7273;48.902;9.410;2022-11-20T09:23:50;382.10;;;114.32;;
9186;SDS011;7273;48.902;9.410;2022-11-20T09:26:15;386.88;;;115.63;;
9186;SDS011;7273;48.902;9.410;2022-11-20T09:28:41;386.08;;;115.65;;
9186;SDS011;7273;48.902;9.410;2022-11-20T09:31:13;387.83;;;115.95;;
9186;SDS011;7273;48.902;9.410;2022-11-20T09:33:48;390.13;;;116.05;;
9186;SDS011;7273;48.902;9.410;2022-11-20T09:36:13;390.73;;;116.45;;
9186;SDS011;7273;48.902;9.410;2022-11-20T09:38:39;389.17;;;116.10;;
9186;SDS011;7273;48.902;9.410;2022-11-20T09:41:05;388.27;;;115.60;;
9186;SDS011;7273;48.902;9.410;2022-11-20T09:46:16;393.83;;;117.63;;
9186;SDS011;7273;48.902;9.410;2022-11-20T09:51:39;394.67;;;117.15;;
9186;SDS011;7273;48.902;9.410;2022-11-20T09:56:33;396.85;;;117.93;;
9186;SDS011;7273;48.902;9.410;2022-11-20T09:59:02;405.13;;;120.63;;
9186;SDS011;7273;48.902;9.410;2022-11-20T10:01:31;405.08;;;120.55;;
9186;SDS011;7273;48.902;9.410;2022-11-20T10:04:03;407.25;;;121.05;;
9186;SDS011;7273;48.902;9.410;2022-11-20T10:09:18;413.50;;;124.03;;
9186;SDS011;7273;48.902;9.410;2022-11-20T10:11:56;413.05;;;123.70;;
9186;SDS011;7273;48.902;9.410;2022-11-20T10:24:44;450.52;;;135.02;;
9186;SDS011;7273;48.902;9.410;2022-11-20T10:27:36;455.83;;;137.43;;
9186;SDS011;7273;48.902;9.410;2022-11-20T10:30:14;458.92;;;137.45;;
9186;SDS011;7273;48.902;9.410;2022-11-20T10:32:42;461.08;;;138.55;;
9186;SDS011;7273;48.902;9.410;2022-11-20T10:35:16;464.25;;;139.32;;
9186;SDS011;7273;48.902;9.410;2022-11-20T10:37:44;467.27;;;140.07;;
9186;SDS011;7273;48.902;9.410;2022-11-20T10:42:59;472.17;;;141.32;;
9186;SDS011;7273;48.902;9.410;2022-11-20T10:45:33;472.67;;;141.50;;
9186;SDS011;7273;48.902;9.410;2022-11-20T10:48:38;475.35;;;141.93;;
9186;SDS011;7273;48.902;9.410;2022-11-20T10:51:02;474.13;;;142.10;;
9186;SDS011;7273;48.902;9.410;2022-11-20T10:56:16;479.15;;;143.45;;
9186;SDS011;7273;48.902;9.410;2022-11-20T10:58:49;481.27;;;144.07;;
9186;SDS011;7273;48.902;9.410;2022-11-20T11:01:24;483.80;;;145.25;;
9186;SDS011;7273;48.902;9.410;2022-11-20T11:03:51;484.80;;;144.73;;
9186;SDS011;7273;48.902;9.410;2022-11-20T11:06:37;482.25;;;144.13;;
9186;SDS011;7273;48.902;9.410;2022-11-20T11:09:10;479.92;;;143.40;;
9186;SDS011;7273;48.902;9.410;2022-11-20T11:11:42;483.23;;;144.88;;
9186;SDS011;7273;48.902;9.410;2022-11-20T11:14:11;482.10;;;144.35;;
9186;SDS011;7273;48.902;9.410;2022-11-20T11:16:51;498.48;;;149.45;;
9186;SDS011;7273;48.902;9.410;2022-11-20T11:19:18;508.60;;;152.90;;
9186;SDS011;7273;48.902;9.410;2022-11-20T11:21:51;514.35;;;154.15;;
9186;SDS011;7273;48.902;9.410;2022-11-20T11:24:26;530.15;;;160.35;;
9186;SDS011;7273;48.902;9.410;2022-11-20T11:29:23;533.05;;;162.10;;
9186;SDS011;7273;48.902;9.410;2022-11-20T11:32:07;579.88;;;183.38;;
9186;SDS011;7273;48.902;9.410;2022-11-20T11:34:37;602.58;;;196.40;;
9186;SDS011;7273;48.902;9.410;2022-11-20T11:37:03;574.40;;;183.20;;
9186;SDS011;7273;48.902;9.410;2022-11-20T11:39:34;450.77;;;132.38;;
9186;SDS011;7273;48.902;9.410;2022-11-20T11:42:00;417.15;;;122.00;;
9186;SDS011;7273;48.902;9.410;2022-11-20T11:47:26;409.58;;;121.38;;
9186;SDS011;7273;48.902;9.410;2022-11-20T11:55:17;424.17;;;124.53;;
9186;SDS011;7273;48.902;9.410;2022-11-20T12:00:41;485.63;;;144.77;;
9186;SDS011;7273;48.902;9.410;2022-11-20T12:03:15;551.47;;;168.73;;
9186;SDS011;7273;48.902;9.410;2022-11-20T12:05:49;622.30;;;201.35;;
9186;SDS011;7273;48.902;9.410;2022-11-20T12:08:27;606.05;;;193.15;;
9186;SDS011;7273;48.902;9.410;2022-11-20T12:10:57;474.05;;;139.25;;
9186;SDS011;7273;48.902;9.410;2022-11-20T12:16:13;477.00;;;140.77;;
9186;SDS011;7273;48.902;9.410;2022-11-20T12:18:41;565.35;;;171.65;;
9186;SDS011;7273;48.902;9.410;2022-11-20T12:26:45;606.00;;;191.50;;
9186;SDS011;7273;48.902;9.410;2022-11-20T12:49:12;526.95;;;155.98;;
9186;SDS011;7273;48.902;9.410;2022-11-20T12:52:17;576.45;;;174.50;;
9186;SDS011;7273;48.902;9.410;2022-11-20T13:00:23;411.35;;;118.88;;
9186;SDS011;7273;48.902;9.410;2022-11-20T13:05:43;400.63;;;115.80;;
9186;SDS011;7273;48.902;9.410;2022-11-20T13:08:40;398.08;;;114.80;;
9186;SDS011;7273;48.902;9.410;2022-11-20T13:11:17;394.58;;;114.40;;
9186;SDS011;7273;48.902;9.410;2022-11-20T13:16:25;395.63;;;114.45;;
9186;SDS011;7273;48.902;9.410;2022-11-20T13:19:01;395.27;;;113.85;;
9186;SDS011;7273;48.902;9.410;2022-11-20T13:21:45;395.88;;;114.25;;
9186;SDS011;7273;48.902;9.410;2022-11-20T13:29:40;397.10;;;114.60;;
9186;SDS011;7273;48.902;9.410;2022-11-20T13:32:16;393.55;;;113.50;;
9186;SDS011;7273;48.902;9.410;2022-11-20T13:34:53;391.05;;;112.90;;
9186;SDS011;7273;48.902;9.410;2022-11-20T13:37:26;392.95;;;113.43;;
9186;SDS011;7273;48.902;9.410;2022-11-20T13:42:35;393.92;;;114.07;;
9186;SDS011;7273;48.902;9.410;2022-11-20T13:45:26;392.35;;;113.53;;
9186;SDS011;7273;48.902;9.410;2022-11-20T13:47:55;394.00;;;114.13;;
9186;SDS011;7273;48.902;9.410;2022-11-20T13:50:27;391.42;;;113.03;;
9186;SDS011;7273;48.902;9.410;2022-11-20T13:56:02;392.00;;;113.32;;
9186;SDS011;7273;48.902;9.410;2022-11-20T14:01:08;398.75;;;114.80;;
9186;SDS011;7273;48.902;9.410;2022-11-20T14:04:07;394.95;;;113.90;;
9186;SDS011;7273;48.902;9.410;2022-11-20T14:06:44;392.35;;;113.25;;
9186;SDS011;7273;48.902;9.410;2022-11-20T14:09:12;390.15;;;112.97;;
9186;SDS011;7273;48.902;9.410;2022-11-20T14:11:49;393.27;;;113.30;;
9186;SDS011;7273;48.902;9.410;2022-11-20T14:14:24;400.42;;;114.93;;
9186;SDS011;7273;48.902;9.410;2022-11-20T14:19:32;398.17;;;115.07;;
9186;SDS011;7273;48.902;9.410;2022-11-20T14:24:43;466.80;;;133.93;;
9186;SDS011;7273;48.902;9.410;2022-11-20T14:27:14;485.48;;;140.27;;
9186;SDS011;7273;48.902;9.410;2022-11-20T14:29:45;479.45;;;138.68;;
9186;SDS011;7273;48.902;9.410;2022-11-20T14:32:17;476.45;;;137.75;;
9186;SDS011;7273;48.902;9.410;2022-11-20T14:34:44;477.70;;;140.80;;
9186;SDS011;7273;48.902;9.410;2022-11-20T14:37:13;473.77;;;137.45;;
9186;SDS011;7273;48.902;9.410;2022-11-20T14:39:48;470.95;;;136.43;;
9186;SDS011;7273;48.902;9.410;2022-11-20T14:42:21;472.67;;;139.57;;
9186;SDS011;7273;48.902;9.410;2022-11-20T14:44:49;464.55;;;135.50;;
9186;SDS011;7273;48.902;9.410;2022-11-20T14:47:21;462.23;;;134.77;;
9186;SDS011;7273;48.902;9.410;2022-11-20T14:49:50;462.25;;;134.75;;
9186;SDS011;7273;48.902;9.410;2022-11-20T14:52:21;468.33;;;137.00;;
9186;SDS011;7273;48.902;9.410;2022-11-20T14:55:07;469.30;;;136.55;;
9186;SDS011;7273;48.902;9.410;2022-11-20T14:57:35;473.45;;;137.98;;
9186;SDS011;7273;48.902;9.410;2022-11-20T15:02:43;475.88;;;138.70;;
9186;SDS011;7273;48.902;9.410;2022-11-20T15:05:10;479.10;;;140.55;;
9186;SDS011;7273;48.902;9.410;2022-11-20T15:07:37;479.83;;;140.30;;
9186;SDS011;7273;48.902;9.410;2022-11-20T15:10:26;477.23;;;139.93;;
9186;SDS011;7273;48.902;9.410;2022-11-20T15:12:53;479.02;;;140.63;;
9186;SDS011;7273;48.902;9.410;2022-11-20T15:18:13;488.10;;;143.02;;
9186;SDS011;7273;48.902;9.410;2022-11-20T15:20:40;491.63;;;144.40;;
9186;SDS011;7273;48.902;9.410;2022-11-20T15:23:10;493.88;;;145.15;;
9186;SDS011;7273;48.902;9.410;2022-11-20T15:25:37;498.00;;;146.77;;
9186;SDS011;7273;48.902;9.410;2022-11-20T15:28:04;493.40;;;145.55;;
9186;SDS011;7273;48.902;9.410;2022-11-20T15:30:37;498.48;;;147.40;;
9186;SDS011;7273;48.902;9.410;2022-11-20T15:33:03;500.63;;;147.98;;
9186;SDS011;7273;48.902;9.410;2022-11-20T15:35:28;512.33;;;152.20;;
9186;SDS011;7273;48.902;9.410;2022-11-20T15:37:54;528.67;;;157.55;;
9186;SDS011;7273;48.902;9.410;2022-11-20T15:40:19;558.47;;;172.27;;
9186;SDS011;7273;48.902;9.410;2022-11-20T15:42:45;643.03;;;210.00;;
9186;SDS011;7273;48.902;9.410;2022-11-20T15:45:27;696.42;;;234.20;;
9186;SDS011;7273;48.902;9.410;2022-11-20T15:47:55;722.58;;;244.88;;
9186;SDS011;7273;48.902;9.410;2022-11-20T15:50:21;725.08;;;247.50;;
9186;SDS011;7273;48.902;9.410;2022-11-20T15:52:50;722.78;;;242.98;;
9186;SDS011;7273;48.902;9.410;2022-11-20T15:55:16;684.58;;;228.13;;
9186;SDS011;7273;48.902;9.410;2022-11-20T15:57:41;643.38;;;208.82;;
9186;SDS011;7273;48.902;9.410;2022-11-20T16:00:07;609.35;;;196.55;;
9186;SDS011;7273;48.902;9.410;2022-11-20T16:02:33;517.55;;;158.63;;
9186;SDS011;7273;48.902;9.410;2022-11-20T16:04:58;528.38;;;161.52;;
9186;SDS011;7273;48.902;9.410;2022-11-20T16:07:24;383.50;;;114.05;;
9186;SDS011;7273;48.902;9.410;2022-11-20T16:09:50;525.30;;;162.95;;
9186;SDS011;7273;48.902;9.410;2022-11-20T16:12:15;490.73;;;150.93;;
9186;SDS011;7273;48.902;9.410;2022-11-20T16:15:01;477.60;;;143.82;;
9186;SDS011;7273;48.902;9.410;2022-11-20T16:17:47;364.02;;;109.30;;
9186;SDS011;7273;48.902;9.410;2022-11-20T16:22:43;410.25;;;124.20;;
9186;SDS011;7273;48.902;9.410;2022-11-20T16:25:10;510.27;;;157.98;;
9186;SDS011;7273;48.902;9.410;2022-11-20T16:27:37;436.25;;;131.55;;